sensor_id;sensor_type;location;lat;lon;timestamp;pressure;altitude;pressure_sealevel;temperature;humidity
63808;BME280;49961;43.970;22.868;2023-12-29T00:00:05;102107.25;;;3.13;100.00
63808;BME280;49961;43.970;22.868;2023-12-29T00:01:05;102106.09;;;3.14;100.00
63808;BME280;49961;43.970;22.868;2023-12-29T00:02:06;102111.72;;;3.18;100.00
63808;BME280;49961;43.970;22.868;2023-12-29T00:03:06;102051.66;;;2.85;100.00
63808;BME280;49961;43.970;22.868;2023-12-29T00:04:07;102096.66;;;3.12;100.00
63808;BME280;49961;43.970;22.868;2023-12-29T00:05:07;102106.59;;;3.16;100.00
63808;BME280;49961;43.970;22.868;2023-12-29T00:06:08;102101.19;;;3.20;100.00
63808;BME280;49961;43.970;22.868;2023-12-29T00:07:08;102005.97;;;2.62;100.00
63808;BME280;49961;43.970;22.868;2023-12-29T00:08:09;102106.78;;;3.23;100.00
63808;BME280;49961;43.970;22.868;2023-12-29T00:09:09;102113.50;;;3.26;100.00
63808;BME280;49961;43.970;22.868;2023-12-29T00:10:10;102105.44;;;3.17;100.00
63808;BME280;49961;43.970;22.868;2023-12-29T00:11:17;102130.28;;;3.24;100.00
63808;BME280;49961;43.970;22.868;2023-12-29T00:12:17;102115.81;;;3.24;100.00
63808;BME280;49961;43.970;22.868;2023-12-29T00:13:18;102114.91;;;3.20;100.00
63808;BME280;49961;43.970;22.868;2023-12-29T00:14:22;102107.50;;;3.20;100.00
63808;BME280;49961;43.970;22.868;2023-12-29T00:15:23;102121.19;;;3.20;100.00
63808;BME280;49961;43.970;22.868;2023-12-29T00:16:23;102052.25;;;2.79;100.00
63808;BME280;49961;43.970;22.868;2023-12-29T00:17:24;102117.63;;;3.20;100.00
63808;BME280;49961;43.970;22.868;2023-12-29T00:18:24;102002.22;;;2.42;100.00
63808;BME280;49961;43.970;22.868;2023-12-29T00:19:25;102110.22;;;3.20;100.00
63808;BME280;49961;43.970;22.868;2023-12-29T00:20:26;102051.31;;;2.87;100.00
63808;BME280;49961;43.970;22.868;2023-12-29T00:21:26;102105.88;;;3.19;100.00
63808;BME280;49961;43.970;22.868;2023-12-29T00:22:27;102116.16;;;3.22;100.00
63808;BME280;49961;43.970;22.868;2023-12-29T00:23:27;102090.63;;;3.06;100.00
63808;BME280;49961;43.970;22.868;2023-12-29T00:24:29;102118.31;;;3.17;100.00
63808;BME280;49961;43.970;22.868;2023-12-29T00:25:31;102013.94;;;2.55;100.00
63808;BME280;49961;43.970;22.868;2023-12-29T00:26:32;102110.09;;;3.17;100.00
63808;BME280;49961;43.970;22.868;2023-12-29T00:27:32;101980.38;;;2.30;100.00
63808;BME280;49961;43.970;22.868;2023-12-29T00:28:33;102086.31;;;2.93;100.00
63808;BME280;49961;43.970;22.868;2023-12-29T00:29:35;102039.94;;;2.73;100.00
63808;BME280;49961;43.970;22.868;2023-12-29T00:30:39;102020.69;;;2.57;100.00
63808;BME280;49961;43.970;22.868;2023-12-29T00:31:41;102043.00;;;2.71;100.00
63808;BME280;49961;43.970;22.868;2023-12-29T00:32:42;102017.25;;;2.60;100.00
63808;BME280;49961;43.970;22.868;2023-12-29T00:33:43;102074.25;;;2.82;100.00
63808;BME280;49961;43.970;22.868;2023-12-29T00:34:44;102114.91;;;3.20;100.00
63808;BME280;49961;43.970;22.868;2023-12-29T00:35:44;102024.91;;;2.67;100.00
63808;BME280;49961;43.970;22.868;2023-12-29T00:36:45;102100.63;;;3.14;100.00
63808;BME280;49961;43.970;22.868;2023-12-29T00:37:45;102113.75;;;3.21;100.00
63808;BME280;49961;43.970;22.868;2023-12-29T00:38:46;102007.81;;;2.58;100.00
63808;BME280;49961;43.970;22.868;2023-12-29T00:39:46;102102.34;;;3.19;100.00
63808;BME280;49961;43.970;22.868;2023-12-29T00:40:47;102032.06;;;2.71;100.00
63808;BME280;49961;43.970;22.868;2023-12-29T00:41:47;102111.91;;;3.25;100.00
63808;BME280;49961;43.970;22.868;2023-12-29T00:42:48;102047.91;;;2.78;100.00
63808;BME280;49961;43.970;22.868;2023-12-29T00:43:48;102110.34;;;3.12;100.00
63808;BME280;49961;43.970;22.868;2023-12-29T00:44:49;102108.06;;;3.14;100.00
63808;BME280;49961;43.970;22.868;2023-12-29T00:45:49;102041.09;;;2.60;100.00
63808;BME280;49961;43.970;22.868;2023-12-29T00:46:50;102116.03;;;3.19;100.00
63808;BME280;49961;43.970;22.868;2023-12-29T00:47:50;102119.94;;;3.18;100.00
63808;BME280;49961;43.970;22.868;2023-12-29T00:48:52;102119.47;;;3.16;100.00
63808;BME280;49961;43.970;22.868;2023-12-29T00:49:52;102106.81;;;3.11;100.00
63808;BME280;49961;43.970;22.868;2023-12-29T00:50:53;102114.81;;;3.04;100.00
63808;BME280;49961;43.970;22.868;2023-12-29T00:51:53;102042.00;;;2.64;100.00
63808;BME280;49961;43.970;22.868;2023-12-29T00:52:54;101981.88;;;2.16;100.00
63808;BME280;49961;43.970;22.868;2023-12-29T00:53:54;102092.00;;;3.00;100.00
63808;BME280;49961;43.970;22.868;2023-12-29T00:54:55;102128.50;;;3.16;100.00
63808;BME280;49961;43.970;22.868;2023-12-29T00:55:55;102117.53;;;3.16;100.00
63808;BME280;49961;43.970;22.868;2023-12-29T00:56:56;102045.50;;;2.76;100.00
63808;BME280;49961;43.970;22.868;2023-12-29T00:57:56;102065.44;;;2.89;100.00
63808;BME280;49961;43.970;22.868;2023-12-29T00:58:57;102115.47;;;3.25;100.00
63808;BME280;49961;43.970;22.868;2023-12-29T00:59:57;102115.47;;;3.25;100.00
63808;BME280;49961;43.970;22.868;2023-12-29T01:00:58;102014.38;;;2.69;100.00
63808;BME280;49961;43.970;22.868;2023-12-29T01:01:58;102031.81;;;2.76;100.00
63808;BME280;49961;43.970;22.868;2023-12-29T01:02:58;101903.28;;;2.01;100.00
63808;BME280;49961;43.970;22.868;2023-12-29T01:03:59;102039.22;;;2.88;100.00
63808;BME280;49961;43.970;22.868;2023-12-29T01:04:59;102087.41;;;3.16;100.00
63808;BME280;49961;43.970;22.868;2023-12-29T01:06:00;102108.84;;;3.26;100.00
63808;BME280;49961;43.970;22.868;2023-12-29T01:07:01;102105.78;;;3.16;100.00
63808;BME280;49961;43.970;22.868;2023-12-29T01:08:01;102113.97;;;3.16;100.00
63808;BME280;49961;43.970;22.868;2023-12-29T01:09:02;102081.63;;;2.94;100.00
63808;BME280;49961;43.970;22.868;2023-12-29T01:10:02;102107.59;;;3.12;100.00
63808;BME280;49961;43.970;22.868;2023-12-29T01:11:03;102113.78;;;3.09;100.00
63808;BME280;49961;43.970;22.868;2023-12-29T01:12:04;102118.34;;;3.05;100.00
63808;BME280;49961;43.970;22.868;2023-12-29T01:13:05;102110.38;;;3.00;100.00
63808;BME280;49961;43.970;22.868;2023-12-29T01:14:05;102118.94;;;2.98;100.00
63808;BME280;49961;43.970;22.868;2023-12-29T01:15:06;102118.50;;;2.96;100.00
63808;BME280;49961;43.970;22.868;2023-12-29T01:16:07;101973.66;;;2.04;100.00
63808;BME280;49961;43.970;22.868;2023-12-29T01:17:07;102104.59;;;2.89;100.00
63808;BME280;49961;43.970;22.868;2023-12-29T01:18:08;102124.66;;;2.93;100.00
63808;BME280;49961;43.970;22.868;2023-12-29T01:19:08;102049.09;;;2.53;100.00
63808;BME280;49961;43.970;22.868;2023-12-29T01:20:09;102107.44;;;2.93;100.00
63808;BME280;49961;43.970;22.868;2023-12-29T01:21:10;102085.53;;;2.81;100.00
63808;BME280;49961;43.970;22.868;2023-12-29T01:22:10;102098.06;;;2.94;100.00
63808;BME280;49961;43.970;22.868;2023-12-29T01:23:11;101942.44;;;1.93;100.00
63808;BME280;49961;43.970;22.868;2023-12-29T01:24:11;101981.97;;;2.19;100.00
63808;BME280;49961;43.970;22.868;2023-12-29T01:25:11;102088.84;;;2.86;100.00
63808;BME280;49961;43.970;22.868;2023-12-29T01:26:12;101901.72;;;1.64;100.00
63808;BME280;49961;43.970;22.868;2023-12-29T01:27:12;102057.84;;;2.70;100.00
63808;BME280;49961;43.970;22.868;2023-12-29T01:28:13;102026.84;;;2.42;100.00
63808;BME280;49961;43.970;22.868;2023-12-29T01:29:13;102022.06;;;2.27;100.00
63808;BME280;49961;43.970;22.868;2023-12-29T01:30:14;102076.19;;;2.70;100.00
63808;BME280;49961;43.970;22.868;2023-12-29T01:31:14;102092.63;;;2.82;100.00
63808;BME280;49961;43.970;22.868;2023-12-29T01:32:15;102073.69;;;2.65;100.00
63808;BME280;49961;43.970;22.868;2023-12-29T01:33:15;102024.47;;;2.29;100.00
63808;BME280;49961;43.970;22.868;2023-12-29T01:34:16;101986.31;;;2.08;100.00
63808;BME280;49961;43.970;22.868;2023-12-29T01:35:16;102080.09;;;2.57;100.00
63808;BME280;49961;43.970;22.868;2023-12-29T01:36:18;102093.56;;;2.62;100.00
63808;BME280;49961;43.970;22.868;2023-12-29T01:37:19;102133.47;;;2.63;100.00
63808;BME280;49961;43.970;22.868;2023-12-29T01:38:19;102074.06;;;2.51;100.00
63808;BME280;49961;43.970;22.868;2023-12-29T01:39:20;102084.53;;;2.61;100.00
63808;BME280;49961;43.970;22.868;2023-12-29T01:40:21;102075.06;;;2.59;100.00
63808;BME280;49961;43.970;22.868;2023-12-29T01:41:21;102088.97;;;2.66;100.00
63808;BME280;49961;43.970;22.868;2023-12-29T01:42:22;102012.16;;;2.23;100.00
63808;BME280;49961;43.970;22.868;2023-12-29T01:43:23;102045.44;;;2.37;100.00
63808;BME280;49961;43.970;22.868;2023-12-29T01:44:23;102079.63;;;2.55;100.00
63808;BME280;49961;43.970;22.868;2023-12-29T01:45:24;102076.91;;;2.55;100.00
63808;BME280;49961;43.970;22.868;2023-12-29T01:46:29;102081.00;;;2.61;100.00
63808;BME280;49961;43.970;22.868;2023-12-29T01:47:30;102048.53;;;2.35;100.00
63808;BME280;49961;43.970;22.868;2023-12-29T01:48:31;102083.72;;;2.61;100.00
63808;BME280;49961;43.970;22.868;2023-12-29T01:49:33;102067.78;;;2.51;100.00
63808;BME280;49961;43.970;22.868;2023-12-29T01:50:35;102023.44;;;2.21;100.00
63808;BME280;49961;43.970;22.868;2023-12-29T01:51:35;102060.16;;;2.44;100.00
63808;BME280;49961;43.970;22.868;2023-12-29T01:52:36;102060.59;;;2.46;100.00
63808;BME280;49961;43.970;22.868;2023-12-29T01:53:37;102073.38;;;2.54;100.00
63808;BME280;49961;43.970;22.868;2023-12-29T01:54:37;101984.16;;;2.02;100.00
63808;BME280;49961;43.970;22.868;2023-12-29T01:55:41;102072.56;;;2.54;100.00
63808;BME280;49961;43.970;22.868;2023-12-29T01:56:41;102064.84;;;2.56;100.00
63808;BME280;49961;43.970;22.868;2023-12-29T01:57:42;102073.03;;;2.56;100.00
63808;BME280;49961;43.970;22.868;2023-12-29T01:58:44;102058.34;;;2.48;100.00
63808;BME280;49961;43.970;22.868;2023-12-29T01:59:45;101986.88;;;2.02;100.00
63808;BME280;49961;43.970;22.868;2023-12-29T02:00:46;101894.41;;;1.44;100.00
63808;BME280;49961;43.970;22.868;2023-12-29T02:01:46;102064.94;;;2.59;100.00
63808;BME280;49961;43.970;22.868;2023-12-29T02:02:48;102077.13;;;2.62;100.00
63808;BME280;49961;43.970;22.868;2023-12-29T02:03:49;102059.22;;;2.64;100.00
63808;BME280;49961;43.970;22.868;2023-12-29T02:04:49;102063.09;;;2.63;100.00
63808;BME280;49961;43.970;22.868;2023-12-29T02:05:50;102062.75;;;2.65;100.00
63808;BME280;49961;43.970;22.868;2023-12-29T02:06:51;102042.94;;;2.56;100.00
63808;BME280;49961;43.970;22.868;2023-12-29T02:07:52;102058.84;;;2.66;100.00
63808;BME280;49961;43.970;22.868;2023-12-29T02:08:54;102001.34;;;2.38;100.00
63808;BME280;49961;43.970;22.868;2023-12-29T02:09:56;102007.16;;;2.37;100.00
63808;BME280;49961;43.970;22.868;2023-12-29T02:10:56;101976.28;;;2.24;100.00
63808;BME280;49961;43.970;22.868;2023-12-29T02:11:57;102012.59;;;2.49;100.00
63808;BME280;49961;43.970;22.868;2023-12-29T02:12:57;102049.84;;;2.77;100.00
63808;BME280;49961;43.970;22.868;2023-12-29T02:14:01;102051.19;;;2.83;100.00
63808;BME280;49961;43.970;22.868;2023-12-29T02:15:03;102044.38;;;2.77;100.00
63808;BME280;49961;43.970;22.868;2023-12-29T02:16:19;102048.00;;;2.81;100.00
63808;BME280;49961;43.970;22.868;2023-12-29T02:17:47;102042.88;;;2.80;100.00
63808;BME280;49961;43.970;22.868;2023-12-29T02:18:52;102031.03;;;2.64;100.00
63808;BME280;49961;43.970;22.868;2023-12-29T02:19:54;101977.75;;;2.34;100.00
63808;BME280;49961;43.970;22.868;2023-12-29T02:20:55;101962.47;;;2.33;100.00
63808;BME280;49961;43.970;22.868;2023-12-29T02:21:56;101975.25;;;2.41;100.00
63808;BME280;49961;43.970;22.868;2023-12-29T02:22:56;102021.69;;;2.77;100.00
63808;BME280;49961;43.970;22.868;2023-12-29T02:23:57;102017.94;;;2.69;100.00
63808;BME280;49961;43.970;22.868;2023-12-29T02:24:57;101993.16;;;2.66;100.00
63808;BME280;49961;43.970;22.868;2023-12-29T02:26:01;102033.50;;;2.93;100.00
63808;BME280;49961;43.970;22.868;2023-12-29T02:28:23;102022.84;;;3.03;100.00
63808;BME280;49961;43.970;22.868;2023-12-29T02:29:26;102012.28;;;2.90;100.00
63808;BME280;49961;43.970;22.868;2023-12-29T02:31:52;102004.97;;;2.94;100.00
63808;BME280;49961;43.970;22.868;2023-12-29T02:32:59;101997.81;;;2.89;100.00
63808;BME280;49961;43.970;22.868;2023-12-29T02:34:03;101940.31;;;2.50;100.00
63808;BME280;49961;43.970;22.868;2023-12-29T02:35:09;102031.06;;;3.03;100.00
63808;BME280;49961;43.970;22.868;2023-12-29T02:36:12;102009.28;;;2.95;100.00
63808;BME280;49961;43.970;22.868;2023-12-29T02:37:14;102018.16;;;3.04;100.00
63808;BME280;49961;43.970;22.868;2023-12-29T02:38:15;102026.22;;;3.12;100.00
63808;BME280;49961;43.970;22.868;2023-12-29T02:39:16;101969.31;;;2.78;100.00
63808;BME280;49961;43.970;22.868;2023-12-29T02:40:17;101942.38;;;2.53;100.00
63808;BME280;49961;43.970;22.868;2023-12-29T02:41:18;102016.44;;;2.99;100.00
63808;BME280;49961;43.970;22.868;2023-12-29T02:42:18;102023.00;;;3.22;100.00
63808;BME280;49961;43.970;22.868;2023-12-29T02:43:19;102011.59;;;3.20;100.00
63808;BME280;49961;43.970;22.868;2023-12-29T02:44:19;101925.91;;;2.65;100.00
63808;BME280;49961;43.970;22.868;2023-12-29T02:45:20;102022.75;;;3.27;100.00
63808;BME280;49961;43.970;22.868;2023-12-29T02:46:20;102019.66;;;3.29;100.00
63808;BME280;49961;43.970;22.868;2023-12-29T02:47:21;102018.25;;;3.35;100.00
63808;BME280;49961;43.970;22.868;2023-12-29T02:48:22;102011.28;;;3.37;100.00
63808;BME280;49961;43.970;22.868;2023-12-29T02:49:22;102011.81;;;3.43;100.00
63808;BME280;49961;43.970;22.868;2023-12-29T02:50:23;101984.66;;;3.22;100.00
63808;BME280;49961;43.970;22.868;2023-12-29T02:51:23;102019.69;;;3.44;100.00
63808;BME280;49961;43.970;22.868;2023-12-29T02:52:24;102018.19;;;3.47;100.00
63808;BME280;49961;43.970;22.868;2023-12-29T02:53:24;101941.44;;;2.88;100.00
63808;BME280;49961;43.970;22.868;2023-12-29T02:54:25;102012.72;;;3.47;100.00
63808;BME280;49961;43.970;22.868;2023-12-29T02:55:25;102017.25;;;3.55;100.00
63808;BME280;49961;43.970;22.868;2023-12-29T02:56:26;101994.41;;;3.51;100.00
63808;BME280;49961;43.970;22.868;2023-12-29T02:57:26;101930.91;;;3.18;100.00
63808;BME280;49961;43.970;22.868;2023-12-29T02:58:27;102010.25;;;3.73;100.00
63808;BME280;49961;43.970;22.868;2023-12-29T02:59:27;102007.97;;;3.75;100.00
63808;BME280;49961;43.970;22.868;2023-12-29T03:00:28;102016.28;;;3.78;100.00
63808;BME280;49961;43.970;22.868;2023-12-29T03:01:28;101981.44;;;3.63;100.00
63808;BME280;49961;43.970;22.868;2023-12-29T03:02:29;102006.03;;;3.91;100.00
63808;BME280;49961;43.970;22.868;2023-12-29T03:03:30;102002.50;;;3.90;100.00
63808;BME280;49961;43.970;22.868;2023-12-29T03:04:30;102009.41;;;4.00;100.00
63808;BME280;49961;43.970;22.868;2023-12-29T03:05:31;102010.47;;;4.11;100.00
63808;BME280;49961;43.970;22.868;2023-12-29T03:06:31;102013.34;;;4.33;100.00
63808;BME280;49961;43.970;22.868;2023-12-29T03:07:32;102013.66;;;4.47;100.00
63808;BME280;49961;43.970;22.868;2023-12-29T03:08:32;102010.13;;;4.47;100.00
63808;BME280;49961;43.970;22.868;2023-12-29T03:09:33;102003.69;;;4.39;100.00
63808;BME280;49961;43.970;22.868;2023-12-29T03:10:33;102011.78;;;4.51;100.00
63808;BME280;49961;43.970;22.868;2023-12-29T03:11:34;102015.44;;;4.55;100.00
63808;BME280;49961;43.970;22.868;2023-12-29T03:12:34;102017.53;;;4.62;100.00
63808;BME280;49961;43.970;22.868;2023-12-29T03:13:35;102017.19;;;4.63;100.00
63808;BME280;49961;43.970;22.868;2023-12-29T03:14:36;101863.03;;;3.73;100.00
63808;BME280;49961;43.970;22.868;2023-12-29T03:15:36;102010.53;;;4.83;100.00
63808;BME280;49961;43.970;22.868;2023-12-29T03:16:37;101952.53;;;4.66;100.00
63808;BME280;49961;43.970;22.868;2023-12-29T03:17:37;102012.88;;;5.00;100.00
63808;BME280;49961;43.970;22.868;2023-12-29T03:18:38;101924.25;;;4.46;100.00
63808;BME280;49961;43.970;22.868;2023-12-29T03:19:40;101968.22;;;4.84;100.00
63808;BME280;49961;43.970;22.868;2023-12-29T03:20:40;102012.66;;;5.28;100.00
63808;BME280;49961;43.970;22.868;2023-12-29T03:21:41;102000.06;;;5.27;100.00
63808;BME280;49961;43.970;22.868;2023-12-29T03:22:41;101936.53;;;4.90;100.00
63808;BME280;49961;43.970;22.868;2023-12-29T03:23:42;101994.91;;;5.44;100.00
63808;BME280;49961;43.970;22.868;2023-12-29T03:24:42;101977.41;;;5.33;100.00
63808;BME280;49961;43.970;22.868;2023-12-29T03:25:43;102011.50;;;5.48;100.00
63808;BME280;49961;43.970;22.868;2023-12-29T03:26:44;101972.78;;;5.37;100.00
63808;BME280;49961;43.970;22.868;2023-12-29T03:27:44;101995.75;;;5.48;100.00
63808;BME280;49961;43.970;22.868;2023-12-29T03:28:45;102009.91;;;5.69;100.00
63808;BME280;49961;43.970;22.868;2023-12-29T03:29:45;101935.25;;;5.26;100.00
63808;BME280;49961;43.970;22.868;2023-12-29T03:30:46;102013.66;;;5.80;100.00
63808;BME280;49961;43.970;22.868;2023-12-29T03:31:46;101913.31;;;5.07;100.00
63808;BME280;49961;43.970;22.868;2023-12-29T03:32:47;101964.75;;;5.48;100.00
63808;BME280;49961;43.970;22.868;2023-12-29T03:33:47;101934.19;;;5.30;100.00
63808;BME280;49961;43.970;22.868;2023-12-29T03:34:48;102017.28;;;5.84;100.00
63808;BME280;49961;43.970;22.868;2023-12-29T03:35:49;101892.34;;;5.18;100.00
63808;BME280;49961;43.970;22.868;2023-12-29T03:36:49;102011.66;;;6.00;100.00
63808;BME280;49961;43.970;22.868;2023-12-29T03:37:50;101977.41;;;5.75;100.00
63808;BME280;49961;43.970;22.868;2023-12-29T03:38:50;102005.28;;;5.96;100.00
63808;BME280;49961;43.970;22.868;2023-12-29T03:39:51;101993.69;;;5.83;100.00
63808;BME280;49961;43.970;22.868;2023-12-29T03:40:51;101996.13;;;5.88;100.00
63808;BME280;49961;43.970;22.868;2023-12-29T03:41:52;101918.66;;;5.41;100.00
63808;BME280;49961;43.970;22.868;2023-12-29T03:42:52;101987.88;;;5.88;100.00
63808;BME280;49961;43.970;22.868;2023-12-29T03:43:52;102013.84;;;6.13;100.00
63808;BME280;49961;43.970;22.868;2023-12-29T03:44:53;102003.09;;;6.05;100.00
63808;BME280;49961;43.970;22.868;2023-12-29T03:45:53;102006.69;;;6.09;100.00
63808;BME280;49961;43.970;22.868;2023-12-29T03:46:54;102012.56;;;6.07;100.00
63808;BME280;49961;43.970;22.868;2023-12-29T03:47:54;101971.31;;;5.85;100.00
63808;BME280;49961;43.970;22.868;2023-12-29T03:48:55;101852.44;;;5.05;100.00
63808;BME280;49961;43.970;22.868;2023-12-29T03:49:55;102010.44;;;5.97;100.00
63808;BME280;49961;43.970;22.868;2023-12-29T03:50:56;102012.69;;;5.92;100.00
63808;BME280;49961;43.970;22.868;2023-12-29T03:51:56;101991.16;;;5.75;100.00
63808;BME280;49961;43.970;22.868;2023-12-29T03:52:57;102004.50;;;5.95;100.00
63808;BME280;49961;43.970;22.868;2023-12-29T03:53:57;102007.63;;;5.94;100.00
63808;BME280;49961;43.970;22.868;2023-12-29T03:55:01;102016.00;;;6.01;100.00
63808;BME280;49961;43.970;22.868;2023-12-29T03:56:08;102009.69;;;6.00;100.00
63808;BME280;49961;43.970;22.868;2023-12-29T03:57:08;102003.00;;;6.01;100.00
63808;BME280;49961;43.970;22.868;2023-12-29T03:58:09;101971.91;;;5.75;100.00
63808;BME280;49961;43.970;22.868;2023-12-29T03:59:10;101934.19;;;5.53;100.00
63808;BME280;49961;43.970;22.868;2023-12-29T04:00:14;102005.03;;;6.04;100.00
63808;BME280;49961;43.970;22.868;2023-12-29T04:01:16;102009.00;;;6.07;100.00
63808;BME280;49961;43.970;22.868;2023-12-29T04:02:17;102006.31;;;6.10;100.00
63808;BME280;49961;43.970;22.868;2023-12-29T04:03:18;102001.06;;;6.02;100.00
63808;BME280;49961;43.970;22.868;2023-12-29T04:04:18;101901.88;;;5.46;100.00
63808;BME280;49961;43.970;22.868;2023-12-29T04:05:19;102022.47;;;6.12;100.00
63808;BME280;49961;43.970;22.868;2023-12-29T04:06:19;102002.88;;;6.17;100.00
63808;BME280;49961;43.970;22.868;2023-12-29T04:07:20;101983.06;;;6.08;100.00
63808;BME280;49961;43.970;22.868;2023-12-29T04:08:20;101997.44;;;6.20;100.00
63808;BME280;49961;43.970;22.868;2023-12-29T04:09:21;102004.69;;;6.32;100.00
63808;BME280;49961;43.970;22.868;2023-12-29T04:10:21;101937.66;;;5.95;100.00
63808;BME280;49961;43.970;22.868;2023-12-29T04:11:22;102004.03;;;6.38;100.00
63808;BME280;49961;43.970;22.868;2023-12-29T04:12:22;101998.47;;;6.35;100.00
63808;BME280;49961;43.970;22.868;2023-12-29T04:13:23;101966.28;;;6.16;100.00
63808;BME280;49961;43.970;22.868;2023-12-29T04:14:23;101957.69;;;6.18;100.00
63808;BME280;49961;43.970;22.868;2023-12-29T04:15:24;102001.78;;;6.47;100.00
63808;BME280;49961;43.970;22.868;2023-12-29T04:16:24;101993.50;;;6.47;100.00
63808;BME280;49961;43.970;22.868;2023-12-29T04:17:25;101993.94;;;6.49;100.00
63808;BME280;49961;43.970;22.868;2023-12-29T04:18:25;101952.22;;;6.21;100.00
63808;BME280;49961;43.970;22.868;2023-12-29T04:19:26;101994.84;;;6.57;100.00
63808;BME280;49961;43.970;22.868;2023-12-29T04:20:26;101996.09;;;6.63;100.00
63808;BME280;49961;43.970;22.868;2023-12-29T04:21:27;101807.28;;;5.51;100.00
63808;BME280;49961;43.970;22.868;2023-12-29T04:22:27;101978.38;;;6.60;100.00
63808;BME280;49961;43.970;22.868;2023-12-29T04:23:28;101999.84;;;6.77;100.00
63808;BME280;49961;43.970;22.868;2023-12-29T04:24:28;101997.84;;;6.74;100.00
63808;BME280;49961;43.970;22.868;2023-12-29T04:25:30;101997.47;;;6.76;100.00
63808;BME280;49961;43.970;22.868;2023-12-29T04:26:38;102004.56;;;6.77;100.00
63808;BME280;49961;43.970;22.868;2023-12-29T04:27:40;101920.84;;;6.26;100.00
63808;BME280;49961;43.970;22.868;2023-12-29T04:28:42;101910.88;;;6.18;100.00
63808;BME280;49961;43.970;22.868;2023-12-29T04:29:43;101939.09;;;6.37;100.00
63808;BME280;49961;43.970;22.868;2023-12-29T04:30:44;101951.22;;;6.62;100.00
63808;BME280;49961;43.970;22.868;2023-12-29T04:31:45;101989.75;;;6.88;100.00
63808;BME280;49961;43.970;22.868;2023-12-29T04:32:45;101966.38;;;6.75;100.00
63808;BME280;49961;43.970;22.868;2023-12-29T04:33:46;102006.78;;;6.97;100.00
63808;BME280;49961;43.970;22.868;2023-12-29T04:34:46;101992.25;;;6.97;100.00
63808;BME280;49961;43.970;22.868;2023-12-29T04:35:47;102008.22;;;7.17;100.00
63808;BME280;49961;43.970;22.868;2023-12-29T04:36:47;101990.41;;;7.08;100.00
63808;BME280;49961;43.970;22.868;2023-12-29T04:37:48;101991.50;;;7.03;100.00
63808;BME280;49961;43.970;22.868;2023-12-29T04:38:49;101986.06;;;7.07;100.00
63808;BME280;49961;43.970;22.868;2023-12-29T04:39:50;102003.88;;;7.16;100.00
63808;BME280;49961;43.970;22.868;2023-12-29T04:40:50;101988.38;;;7.05;100.00
63808;BME280;49961;43.970;22.868;2023-12-29T04:41:51;101910.31;;;6.61;100.00
63808;BME280;49961;43.970;22.868;2023-12-29T04:42:51;102007.06;;;7.18;100.00
63808;BME280;49961;43.970;22.868;2023-12-29T04:43:52;102006.28;;;7.18;100.00
63808;BME280;49961;43.970;22.868;2023-12-29T04:44:52;101984.94;;;7.11;100.00
63808;BME280;49961;43.970;22.868;2023-12-29T04:45:53;101993.72;;;7.20;100.00
63808;BME280;49961;43.970;22.868;2023-12-29T04:46:53;102010.31;;;7.27;100.00
63808;BME280;49961;43.970;22.868;2023-12-29T04:47:54;102008.03;;;7.33;100.00
63808;BME280;49961;43.970;22.868;2023-12-29T04:48:54;101960.41;;;7.03;100.00
63808;BME280;49961;43.970;22.868;2023-12-29T04:49:59;102003.66;;;7.32;100.00
63808;BME280;49961;43.970;22.868;2023-12-29T04:51:00;101959.66;;;7.06;100.00
63808;BME280;49961;43.970;22.868;2023-12-29T04:52:01;101998.16;;;7.32;100.00
63808;BME280;49961;43.970;22.868;2023-12-29T04:53:02;102009.69;;;7.41;100.00
63808;BME280;49961;43.970;22.868;2023-12-29T04:54:03;102007.72;;;7.41;100.00
63808;BME280;49961;43.970;22.868;2023-12-29T04:55:04;102007.28;;;7.39;100.00
63808;BME280;49961;43.970;22.868;2023-12-29T04:56:05;101931.47;;;6.86;100.00
63808;BME280;49961;43.970;22.868;2023-12-29T04:57:05;102007.69;;;7.38;100.00
63808;BME280;49961;43.970;22.868;2023-12-29T04:58:06;102010.13;;;7.43;100.00
63808;BME280;49961;43.970;22.868;2023-12-29T04:59:06;102011.72;;;7.47;100.00
63808;BME280;49961;43.970;22.868;2023-12-29T05:00:07;102002.31;;;7.52;100.00
63808;BME280;49961;43.970;22.868;2023-12-29T05:01:07;101943.25;;;7.16;100.00
63808;BME280;49961;43.970;22.868;2023-12-29T05:02:08;101919.41;;;6.98;100.00
63808;BME280;49961;43.970;22.868;2023-12-29T05:03:09;102005.47;;;7.50;100.00
63808;BME280;49961;43.970;22.868;2023-12-29T05:04:09;101935.69;;;7.10;100.00
63808;BME280;49961;43.970;22.868;2023-12-29T05:05:10;101923.38;;;7.00;100.00
63808;BME280;49961;43.970;22.868;2023-12-29T05:06:10;101940.25;;;6.95;100.00
63808;BME280;49961;43.970;22.868;2023-12-29T05:07:11;102029.53;;;7.53;100.00
63808;BME280;49961;43.970;22.868;2023-12-29T05:08:12;101953.78;;;7.11;100.00
63808;BME280;49961;43.970;22.868;2023-12-29T05:09:12;102018.84;;;7.52;100.00
63808;BME280;49961;43.970;22.868;2023-12-29T05:10:13;101980.44;;;7.33;100.00
63808;BME280;49961;43.970;22.868;2023-12-29T05:11:13;102012.13;;;7.49;100.00
63808;BME280;49961;43.970;22.868;2023-12-29T05:12:14;102021.63;;;7.52;100.00
63808;BME280;49961;43.970;22.868;2023-12-29T05:13:15;102033.09;;;7.54;100.00
63808;BME280;49961;43.970;22.868;2023-12-29T05:14:16;101950.22;;;7.07;100.00
63808;BME280;49961;43.970;22.868;2023-12-29T05:15:16;102019.28;;;7.54;100.00
63808;BME280;49961;43.970;22.868;2023-12-29T05:16:17;102020.88;;;7.55;100.00
63808;BME280;49961;43.970;22.868;2023-12-29T05:17:17;102018.13;;;7.55;100.00